Time;durP1;ratioP1;P1;durP2;ratioP2;P2;SDS_P1;SDS_P2;PMS_P1;PMS_P2;Temp;Humidity;BMP_temperature;BMP_pressure;BME280_temperature;BME280_humidity;BME280_pressure;Samples;Min_cycle;Max_cycle;Signal;HPM_P1;HPM_P2
2022/02/13 00:01:34;;;;;;;34.2;18.4;;;;;;;-3.15;75.87988;945.0129;;;;
2022/02/13 00:04:00;;;;;;;26;16.2;;;;;;;-3.29;76.12012;945.1389;;;;
2022/02/13 00:06:25;;;;;;;25.6;15.3;;;;;;;-3.39;76.3877;945.031;;;;
2022/02/13 00:09:01;;;;;;;19.9;11.5;;;;;;;-3.34;76.16602;945.0876;;;;
2022/02/13 00:11:47;;;;;;;18.7;11.1;;;;;;;-3.34;75.92285;945.0673;;;;
2022/02/13 00:14:18;;;;;;;18.1;10.8;;;;;;;-3.27;75.52539;945.0444;;;;
2022/02/13 00:16:46;;;;;;;15.4;10.3;;;;;;;-3.4;75.91113;945.0168;;;;
2022/02/13 00:19:24;;;;;;;15.8;10.4;;;;;;;-3.51;76.33398;945.0142;;;;
2022/02/13 00:22:01;;;;;;;16.4;10;;;;;;;-3.49;76.58887;944.9129;;;;
2022/02/13 00:24:39;;;;;;;15.8;10.1;;;;;;;-3.44;76.5127;944.9931;;;;
2022/02/13 00:27:16;;;;;;;17.2;10;;;;;;;-3.51;76.36621;944.9737;;;;
2022/02/13 00:29:53;;;;;;;15.4;9.9;;;;;;;-3.51;75.93555;944.9861;;;;
2022/02/13 00:32:26;;;;;;;15;9.6;;;;;;;-3.61;76.71289;944.9856;;;;
2022/02/13 00:34:51;;;;;;;15.7;9.9;;;;;;;-3.72;77.06836;945.0349;;;;
2022/02/13 00:37:40;;;;;;;13.7;9.1;;;;;;;-3.72;76.91211;945.0003;;;;
2022/02/13 00:40:24;;;;;;;13.5;8.5;;;;;;;-3.77;77.29004;945.0293;;;;
2022/02/13 00:42:51;;;;;;;10.5;6.9;;;;;;;-3.86;77.57129;945.0129;;;;
2022/02/13 00:45:31;;;;;;;12.8;7.8;;;;;;;-3.84;77.70898;945.0055;;;;
2022/02/13 00:47:58;;;;;;;11.7;6.8;;;;;;;-3.78;77.2998;944.9709;;;;
2022/02/13 00:50:28;;;;;;;9.6;4.8;;;;;;;-3.75;76.92773;944.9489;;;;
2022/02/13 00:52:53;;;;;;;9.5;4.7;;;;;;;-3.68;75.86035;944.8735;;;;
2022/02/13 00:55:25;;;;;;;9.4;4.9;;;;;;;-3.66;75.76465;944.761;;;;
2022/02/13 00:57:54;;;;;;;11.4;4.7;;;;;;;-3.56;75.00879;944.9047;;;;
2022/02/13 01:00:20;;;;;;;10.5;5.2;;;;;;;-3.55;74.73438;944.9225;;;;
2022/02/13 01:02:46;;;;;;;10.1;5.4;;;;;;;-3.61;74.75781;944.967;;;;
2022/02/13 01:05:20;;;;;;;12.9;6.1;;;;;;;-3.68;74.99902;944.9152;;;;
2022/02/13 01:07:51;;;;;;;9.7;5.3;;;;;;;-3.79;75.45313;944.9755;;;;
2022/02/13 01:10:26;;;;;;;9.9;5.6;;;;;;;-3.79;75.54297;944.9504;;;;
2022/02/13 01:12:59;;;;;;;10.6;5.1;;;;;;;-3.69;75.43945;944.9241;;;;
2022/02/13 01:15:40;;;;;;;9.2;4.9;;;;;;;-3.75;75.5166;944.8845;;;;
2022/02/13 01:18:16;;;;;;;12;5;;;;;;;-3.85;75.62012;944.8569;;;;
2022/02/13 01:20:43;;;;;;;7.2;3.9;;;;;;;-3.88;75.0625;944.8904;;;;
2022/02/13 01:23:15;;;;;;;9;4.5;;;;;;;-3.94;75.39355;944.8602;;;;
2022/02/13 01:25:44;;;;;;;8.9;4.7;;;;;;;-4.05;75.66211;944.825;;;;
2022/02/13 01:28:09;;;;;;;7.3;3.9;;;;;;;-3.93;75.06445;944.8013;;;;
2022/02/13 01:30:34;;;;;;;7.9;4.2;;;;;;;-3.87;74.95605;944.7678;;;;
2022/02/13 01:33:06;;;;;;;10;5;;;;;;;-3.92;75.49805;944.7858;;;;
2022/02/13 01:35:38;;;;;;;9.3;5.3;;;;;;;-3.93;75.49414;944.6571;;;;
2022/02/13 01:38:03;;;;;;;11;5.2;;;;;;;-3.91;75.8291;944.7684;;;;
2022/02/13 01:40:31;;;;;;;8.9;4.8;;;;;;;-3.82;75.11816;944.7285;;;;
2022/02/13 01:42:57;;;;;;;8.3;4.3;;;;;;;-3.73;74.39355;944.787;;;;
2022/02/13 01:45:25;;;;;;;10.6;4.6;;;;;;;-3.75;74.36621;944.7653;;;;
2022/02/13 01:47:54;;;;;;;9;5;;;;;;;-3.81;73.9834;944.6941;;;;
2022/02/13 01:50:21;;;;;;;7;3.5;;;;;;;-4;74.36719;944.7188;;;;
2022/02/13 01:52:49;;;;;;;6.8;3.5;;;;;;;-4.01;74.71875;944.7228;;;;
2022/02/13 01:55:13;;;;;;;6.7;3.8;;;;;;;-4.06;74.97559;944.5974;;;;
2022/02/13 01:57:43;;;;;;;6.8;3.4;;;;;;;-4.09;75.29004;944.7122;;;;
2022/02/13 02:00:08;;;;;;;5.1;3.2;;;;;;;-4.05;74.92383;944.6834;;;;
2022/02/13 02:02:37;;;;;;;8.9;3.3;;;;;;;-3.96;75.01563;944.6979;;;;
2022/02/13 02:05:12;;;;;;;7.1;3.1;;;;;;;-3.96;74.90527;944.6994;;;;
2022/02/13 02:07:42;;;;;;;5.1;2.9;;;;;;;-3.96;74.82715;944.7141;;;;
2022/02/13 02:10:19;;;;;;;5.6;2.7;;;;;;;-3.95;74.62891;944.6795;;;;
2022/02/13 02:12:47;;;;;;;4.7;2.5;;;;;;;-3.88;73.75879;944.579;;;;
2022/02/13 02:15:22;;;;;;;4.3;2.4;;;;;;;-3.8;73.24316;944.6116;;;;
2022/02/13 02:17:51;;;;;;;4.7;2.3;;;;;;;-3.73;72.74805;944.5757;;;;
2022/02/13 02:20:24;;;;;;;5.2;2.3;;;;;;;-3.8;72.90137;944.5575;;;;
2022/02/13 02:22:56;;;;;;;4.1;2.3;;;;;;;-3.82;72.80957;944.5538;;;;
2022/02/13 02:25:27;;;;;;;4.4;2.5;;;;;;;-3.76;72.82031;944.5358;;;;
2022/02/13 02:27:55;;;;;;;4.4;2.6;;;;;;;-3.77;72.83203;944.5131;;;;
2022/02/13 02:30:20;;;;;;;5.2;2.5;;;;;;;-3.8;72.98047;944.4757;;;;
2022/02/13 02:32:53;;;;;;;4.1;2.7;;;;;;;-3.68;72.29395;944.4363;;;;
2022/02/13 02:35:23;;;;;;;5.5;2.9;;;;;;;-3.67;72.44043;944.4597;;;;
2022/02/13 02:37:47;;;;;;;5;2.9;;;;;;;-3.75;72.82227;944.4155;;;;
2022/02/13 02:40:18;;;;;;;4.4;2.2;;;;;;;-3.71;71.7041;944.3879;;;;
2022/02/13 02:42:47;;;;;;;9.5;5.2;;;;;;;-3.7;71.89355;944.3594;;;;
2022/02/13 02:45:13;;;;;;;4.8;2;;;;;;;-3.75;71.62988;944.4146;;;;
2022/02/13 02:47:40;;;;;;;10.6;5.1;;;;;;;-3.76;72.84277;944.3843;;;;
2022/02/13 02:50:06;;;;;;;6.3;3.1;;;;;;;-3.74;72.47168;944.4064;;;;
2022/02/13 02:52:32;;;;;;;6.4;3.6;;;;;;;-3.69;72.34766;944.3987;;;;
2022/02/13 02:54:57;;;;;;;9.9;4.3;;;;;;;-3.71;72.78613;944.4009;;;;
2022/02/13 02:57:27;;;;;;;14.3;6.2;;;;;;;-3.72;72.68555;944.399;;;;
2022/02/13 02:59:52;;;;;;;16.2;6.6;;;;;;;-3.73;72.5166;944.3709;;;;
2022/02/13 03:02:17;;;;;;;11.4;5.3;;;;;;;-3.7;72.43457;944.3672;;;;
2022/02/13 03:04:47;;;;;;;5.9;2.9;;;;;;;-3.63;72.18164;944.3679;;;;
2022/02/13 03:07:18;;;;;;;3.7;2.3;;;;;;;-3.71;71.8916;944.3375;;;;
2022/02/13 03:09:44;;;;;;;5.1;2.4;;;;;;;-3.85;72.50684;944.3691;;;;
2022/02/13 03:12:12;;;;;;;4.2;2;;;;;;;-4.03;72.49609;944.3228;;;;
2022/02/13 03:14:37;;;;;;;4.5;2.2;;;;;;;-4.09;73.07324;944.3038;;;;
2022/02/13 03:17:13;;;;;;;4.6;2.4;;;;;;;-4.19;73.83691;944.39;;;;
2022/02/13 03:19:44;;;;;;;7.7;3.7;;;;;;;-4.19;74.03516;944.3072;;;;
2022/02/13 03:22:13;;;;;;;5.6;2.7;;;;;;;-4.14;73.99023;944.3684;;;;
2022/02/13 03:24:38;;;;;;;5.4;2.6;;;;;;;-4.21;74.28613;944.3032;;;;
2022/02/13 03:27:09;;;;;;;4.6;2.1;;;;;;;-4.16;74.58105;944.3281;;;;
2022/02/13 03:29:39;;;;;;;4.1;2.2;;;;;;;-4.14;74.58594;944.2922;;;;
2022/02/13 03:32:07;;;;;;;3.8;2.1;;;;;;;-4.08;73.83398;944.3527;;;;
2022/02/13 03:34:39;;;;;;;10.4;4.1;;;;;;;-4.12;74.22656;944.2916;;;;
2022/02/13 03:37:05;;;;;;;8.3;3.1;;;;;;;-4.21;74.38574;944.2224;;;;
2022/02/13 03:39:38;;;;;;;4.5;2.4;;;;;;;-4.27;74.74902;944.1998;;;;
2022/02/13 03:42:01;;;;;;;5;2.5;;;;;;;-4.22;74.49414;944.1942;;;;
2022/02/13 03:44:27;;;;;;;4.5;2.4;;;;;;;-4.17;74.10645;944.2791;;;;
2022/02/13 03:46:53;;;;;;;4.6;2;;;;;;;-4.01;72.79883;944.2667;;;;
2022/02/13 03:49:18;;;;;;;2.2;1.4;;;;;;;-3.97;71.54883;944.2399;;;;
2022/02/13 03:51:47;;;;;;;5.2;2;;;;;;;-3.8;70.77246;944.2081;;;;
2022/02/13 03:54:12;;;;;;;3.5;1.6;;;;;;;-3.72;69.78125;944.2974;;;;
2022/02/13 03:56:39;;;;;;;2.3;1.5;;;;;;;-3.64;69.30762;944.2075;;;;
2022/02/13 03:59:04;;;;;;;3.6;1.8;;;;;;;-3.63;69.75195;944.1516;;;;
2022/02/13 04:02:31;;;;;;;6.1;1.9;;;;;;;-3.6;70.51758;944.2008;;;;
2022/02/13 04:04:57;;;;;;;4;2.1;;;;;;;-3.71;71.43848;944.1937;;;;
2022/02/13 04:07:22;;;;;;;3.9;2.1;;;;;;;-3.8;72.06348;944.2532;;;;
2022/02/13 04:09:48;;;;;;;4.4;2;;;;;;;-3.79;71.62402;944.2172;;;;
2022/02/13 04:12:14;;;;;;;2.4;1.8;;;;;;;-3.76;71.24219;944.1761;;;;
2022/02/13 04:14:43;;;;;;;5.1;2.4;;;;;;;-3.81;71.06836;944.2138;;;;
2022/02/13 04:17:19;;;;;;;4.2;2.3;;;;;;;-3.81;71.12402;944.2465;;;;
2022/02/13 04:19:46;;;;;;;1.9;1.5;;;;;;;-3.48;66.68262;944.1378;;;;
2022/02/13 04:22:12;;;;;;;1.7;1.4;;;;;;;-3.25;66.1123;944.2034;;;;
2022/02/13 04:24:43;;;;;;;8.5;7.7;;;;;;;-3.01;64.18066;944.2442;;;;
2022/02/13 04:27:08;;;;;;;1.6;1.1;;;;;;;-2.83;63.44629;944.1987;;;;
2022/02/13 04:29:38;;;;;;;2.7;1.6;;;;;;;-2.78;63.62988;944.1315;;;;
2022/02/13 04:32:03;;;;;;;1.7;1.1;;;;;;;-2.72;62.02246;944.1733;;;;
2022/02/13 04:34:30;;;;;;;6.1;2.3;;;;;;;-2.7;64.34961;944.1569;;;;
2022/02/13 04:36:59;;;;;;;7.3;2.5;;;;;;;-2.99;66.27539;944.1621;;;;
2022/02/13 04:39:24;;;;;;;3.7;1.9;;;;;;;-3.13;67.11621;944.1451;;;;
2022/02/13 04:41:49;;;;;;;4.8;2.3;;;;;;;-3.44;69.05273;944.1387;;;;
2022/02/13 04:44:18;;;;;;;3.7;1.6;;;;;;;-3.63;69.05469;944.1039;;;;
2022/02/13 04:46:49;;;;;;;2.6;1.5;;;;;;;-3.7;68.94531;944.1344;;;;
2022/02/13 04:49:20;;;;;;;3.4;1.3;;;;;;;-3.57;68.94336;944.1594;;;;
2022/02/13 04:51:51;;;;;;;1.7;1.1;;;;;;;-3.52;67.45996;944.1318;;;;
2022/02/13 04:54:21;;;;;;;4.8;1.7;;;;;;;-3.49;66.8916;944.0134;;;;
2022/02/13 04:56:46;;;;;;;1.9;1.3;;;;;;;-3.52;67.84766;944.0984;;;;
2022/02/13 04:59:17;;;;;;;4;1.7;;;;;;;-3.52;67.92383;944.0798;;;;
2022/02/13 05:01:43;;;;;;;2.5;1.5;;;;;;;-3.41;67.59082;943.9802;;;;
2022/02/13 05:04:12;;;;;;;3.1;1.9;;;;;;;-3.38;67.62695;944.0212;;;;
2022/02/13 05:06:38;;;;;;;3.1;1.5;;;;;;;-3.52;67.89258;943.9677;;;;
2022/02/13 05:09:08;;;;;;;2.3;1.4;;;;;;;-3.49;66.30469;943.9498;;;;
2022/02/13 05:11:33;;;;;;;2.4;1.3;;;;;;;-3.29;65.2334;943.932;;;;
2022/02/13 05:14:02;;;;;;;3.5;1.8;;;;;;;-3.06;62.10449;943.9509;;;;
2022/02/13 05:16:32;;;;;;;5;2.6;;;;;;;-2.78;61.80273;943.9295;;;;
2022/02/13 05:19:03;;;;;;;3.3;1.6;;;;;;;-2.69;60.13477;943.8867;;;;
2022/02/13 05:21:32;;;;;;;13.2;3.9;;;;;;;-2.65;61.22363;943.9069;;;;
2022/02/13 05:23:57;;;;;;;4.7;2.7;;;;;;;-2.7;62.22461;943.8193;;;;
2022/02/13 05:26:28;;;;;;;6.5;2.3;;;;;;;-2.76;60.62305;943.8571;;;;
2022/02/13 05:29:00;;;;;;;2.3;1.8;;;;;;;-2.69;60.84375;943.7844;;;;
2022/02/13 05:31:30;;;;;;;1.6;1.3;;;;;;;-2.59;59.73926;943.7386;;;;
2022/02/13 05:33:55;;;;;;;4.4;1.9;;;;;;;-2.53;60.72363;943.7551;;;;
2022/02/13 05:36:20;;;;;;;2.7;1.6;;;;;;;-2.55;61.15137;943.6639;;;;
2022/02/13 05:38:48;;;;;;;3.1;1.9;;;;;;;-2.59;61.08887;943.7311;;;;
2022/02/13 05:41:18;;;;;;;4.8;2.5;;;;;;;-2.63;62.33496;943.6669;;;;
2022/02/13 05:43:43;;;;;;;6.2;2.9;;;;;;;-2.66;61.58887;943.5652;;;;
2022/02/13 05:46:12;;;;;;;3.7;1.8;;;;;;;-2.75;63.14746;943.6791;;;;
2022/02/13 05:48:37;;;;;;;5.1;3;;;;;;;-2.96;65.29395;943.6217;;;;
2022/02/13 05:51:04;;;;;;;14.4;7.4;;;;;;;-3.34;67.85547;943.6753;;;;
2022/02/13 05:53:29;;;;;;;17.3;7.4;;;;;;;-3.47;68.62891;943.6217;;;;
2022/02/13 05:55:58;;;;;;;6.4;3.4;;;;;;;-3.45;67.2959;943.6646;;;;
2022/02/13 05:58:28;;;;;;;6.3;3;;;;;;;-3.5;68.21582;943.7076;;;;
2022/02/13 06:00:53;;;;;;;8.8;3.5;;;;;;;-3.48;67.94238;943.7075;;;;
2022/02/13 06:03:21;;;;;;;8;3.7;;;;;;;-3.38;67.46289;943.7477;;;;
2022/02/13 06:05:52;;;;;;;7.6;3.6;;;;;;;-3.31;65.98242;943.6846;;;;
2022/02/13 06:08:17;;;;;;;7.2;3.4;;;;;;;-3.31;65.72656;943.7403;;;;
2022/02/13 06:10:46;;;;;;;8.5;2.7;;;;;;;-3.25;65.40527;943.7639;;;;
2022/02/13 06:13:12;;;;;;;12.4;6;;;;;;;-3.38;67.20703;943.7245;;;;
2022/02/13 06:15:44;;;;;;;10.2;5.6;;;;;;;-3.54;68.39551;943.6936;;;;
2022/02/13 06:18:12;;;;;;;8.4;3.7;;;;;;;-3.53;67.34961;943.6844;;;;
2022/02/13 06:20:40;;;;;;;3.8;2.2;;;;;;;-3.35;65.50977;943.6042;;;;
2022/02/13 06:23:02;;;;;;;6.3;2.1;;;;;;;-3.15;64.33691;943.6465;;;;
2022/02/13 06:25:32;;;;;;;7.3;2.3;;;;;;;-3.04;64.33008;943.5831;;;;
2022/02/13 06:28:02;;;;;;;4.5;1.9;;;;;;;-2.97;62.70508;943.5995;;;;
2022/02/13 06:30:36;;;;;;;5.9;2.5;;;;;;;-2.88;62.5752;943.6063;;;;
2022/02/13 06:33:06;;;;;;;6;2.4;;;;;;;-2.81;62.77246;943.6295;;;;
2022/02/13 06:35:33;;;;;;;3.3;2.2;;;;;;;-2.87;62.30957;943.5388;;;;
2022/02/13 06:38:00;;;;;;;3.3;1.7;;;;;;;-2.68;61.04297;943.6195;;;;
2022/02/13 06:40:24;;;;;;;5.7;2.7;;;;;;;-2.6;61.94141;943.6631;;;;
2022/02/13 06:42:53;;;;;;;6;2.7;;;;;;;-2.71;63.23047;943.6381;;;;
2022/02/13 06:45:27;;;;;;;6.9;2.9;;;;;;;-2.82;64.35449;943.7274;;;;
2022/02/13 06:47:58;;;;;;;4.9;2.1;;;;;;;-2.82;63.1377;943.7101;;;;
2022/02/13 06:50:30;;;;;;;8;3.6;;;;;;;-3.03;65.32813;943.673;;;;
2022/02/13 06:52:55;;;;;;;6.4;3.2;;;;;;;-2.79;62.69922;943.5803;;;;
2022/02/13 06:55:20;;;;;;;7;3.4;;;;;;;-2.59;62.16406;943.5536;;;;
2022/02/13 06:57:49;;;;;;;6.8;3.6;;;;;;;-2.58;60.90332;943.5808;;;;
2022/02/13 07:00:14;;;;;;;9.1;4.5;;;;;;;-2.6;61.65234;943.5661;;;;
2022/02/13 07:02:43;;;;;;;10.3;5.1;;;;;;;-2.53;62.16309;943.5461;;;;
2022/02/13 07:05:19;;;;;;;8.8;3.4;;;;;;;-2.33;60.46289;943.5524;;;;
2022/02/13 07:07:43;;;;;;;12.8;6.2;;;;;;;-1.86;60.56445;943.522;;;;
2022/02/13 07:10:13;;;;;;;7.4;4.2;;;;;;;-1.68;59.43555;943.5607;;;;
2022/02/13 07:12:44;;;;;;;3.3;1.3;;;;;;;-1.02;52.28516;943.5331;;;;
2022/02/13 07:15:19;;;;;;;2.1;1.5;;;;;;;-0.32;51.99219;943.5297;;;;
2022/02/13 07:17:54;;;;;;;3.4;1.3;;;;;;;0.04;49.50781;943.5069;;;;
2022/02/13 07:20:21;;;;;;;3.9;1.4;;;;;;;0.34;53.04492;943.5023;;;;
2022/02/13 07:22:50;;;;;;;3.9;2.1;;;;;;;0.47;49.01172;943.4688;;;;
2022/02/13 07:25:15;;;;;;;8.2;2.6;;;;;;;0.75;48.4873;943.4852;;;;
2022/02/13 07:27:45;;;;;;;3.1;1.2;;;;;;;0.91;46.27344;943.5227;;;;
2022/02/13 07:30:15;;;;;;;4.5;2.4;;;;;;;0.88;49.30566;943.4597;;;;
2022/02/13 07:32:39;;;;;;;3.4;1.7;;;;;;;1.05;46.14258;943.36;;;;
2022/02/13 07:35:18;;;;;;;6.9;1.6;;;;;;;1.5;46.00098;943.4429;;;;
2022/02/13 07:37:44;;;;;;;2.3;1.2;;;;;;;1.93;44.7041;943.3284;;;;
2022/02/13 07:40:13;;;;;;;1.2;1;;;;;;;2.21;45.47363;943.3113;;;;
2022/02/13 07:42:55;;;;;;;2.8;1.1;;;;;;;2.22;43.13477;943.2992;;;;
2022/02/13 07:45:26;;;;;;;4.4;1.3;;;;;;;2.21;43.60352;943.317;;;;
2022/02/13 07:47:52;;;;;;;2.6;1;;;;;;;1.85;43.35449;943.3683;;;;
2022/02/13 07:50:23;;;;;;;4.1;1.9;;;;;;;1.95;43.3418;943.2612;;;;
2022/02/13 07:52:51;;;;;;;3.2;1.3;;;;;;;2.77;41.22852;943.2654;;;;
2022/02/13 07:55:17;;;;;;;5;1.6;;;;;;;3.14;39.87305;943.2059;;;;
2022/02/13 07:57:47;;;;;;;11.9;2.3;;;;;;;2.87;40.41895;943.1911;;;;
2022/02/13 08:00:18;;;;;;;4.4;1.9;;;;;;;3.29;40.13477;943.0991;;;;
2022/02/13 08:02:52;;;;;;;2.5;1.6;;;;;;;3.71;39.95996;943.0002;;;;
2022/02/13 08:05:18;;;;;;;4;1.8;;;;;;;4.47;39.36719;943.0264;;;;
2022/02/13 08:07:42;;;;;;;18.1;2.9;;;;;;;4.76;39.07813;943.0072;;;;
2022/02/13 08:10:16;;;;;;;7.7;2.3;;;;;;;4.91;36.97363;942.9311;;;;
2022/02/13 08:12:44;;;;;;;3.9;1.1;;;;;;;5.49;35.48926;942.8755;;;;
2022/02/13 08:15:10;;;;;;;1.8;0.9;;;;;;;6.96;33.41504;942.8289;;;;
2022/02/13 08:17:38;;;;;;;5.2;1;;;;;;;6.46;33.39844;942.8301;;;;
2022/02/13 08:20:14;;;;;;;1.6;1.2;;;;;;;6.42;32.10547;942.7869;;;;
2022/02/13 08:22:36;;;;;;;10.8;2.1;;;;;;;7.14;31.33301;942.715;;;;
2022/02/13 08:25:07;;;;;;;6.3;1.5;;;;;;;8;29.81836;942.6122;;;;
2022/02/13 08:27:36;;;;;;;6.1;2;;;;;;;8.32;29.80566;942.6774;;;;
2022/02/13 08:30:01;;;;;;;2;1.4;;;;;;;8.62;29.31543;942.6046;;;;
2022/02/13 08:32:30;;;;;;;3.6;1.1;;;;;;;8.51;29.10352;942.5617;;;;
2022/02/13 08:35:00;;;;;;;2.1;1;;;;;;;8.88;28.20703;942.5472;;;;
2022/02/13 08:37:26;;;;;;;5.8;1.6;;;;;;;11.06;27.02344;942.4522;;;;
2022/02/13 08:39:57;;;;;;;1.7;1;;;;;;;12.32;24.77441;942.4131;;;;
2022/02/13 09:08:05;;;;;;;4.5;1.6;;;;;;;4.35;38.47754;942.2039;;;;
2022/02/13 09:11:40;;;;;;;5.1;1.6;;;;;;;4.43;37.74316;942.0662;;;;
2022/02/13 09:14:05;;;;;;;3;1.3;;;;;;;4.22;38.75781;942.0253;;;;
2022/02/13 09:16:40;;;;;;;1.3;1.1;;;;;;;3.95;38.70117;941.9355;;;;
2022/02/13 09:19:07;;;;;;;1.3;0.8;;;;;;;3.64;39.74023;941.9628;;;;
2022/02/13 09:21:33;;;;;;;2.9;1.2;;;;;;;3.89;38.37988;941.8201;;;;
2022/02/13 09:23:57;;;;;;;3.1;1.2;;;;;;;4.09;37.25098;941.882;;;;
2022/02/13 09:26:27;;;;;;;3.5;1.2;;;;;;;4.44;38.37402;941.8086;;;;
2022/02/13 09:28:58;;;;;;;3.1;1.1;;;;;;;5.49;37.26074;941.7169;;;;
2022/02/13 09:31:33;;;;;;;2;1.1;;;;;;;5.61;35.84961;941.7441;;;;
2022/02/13 09:33:57;;;;;;;1.5;1.2;;;;;;;6.34;34.39453;941.6459;;;;
2022/02/13 09:36:26;;;;;;;2.9;1.3;;;;;;;7.26;32.17969;941.5948;;;;
2022/02/13 09:38:53;;;;;;;3.9;1.7;;;;;;;7.89;31.85254;941.5897;;;;
2022/02/13 09:41:21;;;;;;;2;1.1;;;;;;;8.01;30.47754;941.5669;;;;
2022/02/13 09:43:46;;;;;;;2.8;1.2;;;;;;;7.94;31.79883;941.5679;;;;
2022/02/13 09:46:14;;;;;;;3.8;1.2;;;;;;;9.12;29.37207;941.5019;;;;
2022/02/13 09:48:39;;;;;;;3.9;1.6;;;;;;;8.66;29.94336;941.4838;;;;
2022/02/13 09:51:04;;;;;;;3.1;1.1;;;;;;;9.41;30.14355;941.4297;;;;
2022/02/13 09:53:34;;;;;;;1.6;1.2;;;;;;;8.75;28.90332;941.2791;;;;
2022/02/13 09:55:57;;;;;;;1.9;1.3;;;;;;;9.48;29.66992;941.32;;;;
2022/02/13 09:58:29;;;;;;;2.5;1.2;;;;;;;9.14;28.40625;941.2488;;;;
2022/02/13 10:00:58;;;;;;;3.5;1.4;;;;;;;9.86;28.27148;941.216;;;;
2022/02/13 10:03:23;;;;;;;2.8;1.3;;;;;;;10.27;28.00098;941.2297;;;;
2022/02/13 10:05:55;;;;;;;2.6;1.3;;;;;;;9.23;27.45605;941.2285;;;;
2022/02/13 10:08:20;;;;;;;2.8;1.4;;;;;;;9.11;26.36719;941.1775;;;;
2022/02/13 10:10:45;;;;;;;3.8;1.1;;;;;;;8.99;27.13379;941.1517;;;;
2022/02/13 10:13:16;;;;;;;3.8;1.2;;;;;;;8.82;26.82715;941.0419;;;;
2022/02/13 10:15:48;;;;;;;1.3;0.9;;;;;;;8.95;27.59668;940.9865;;;;
2022/02/13 10:18:14;;;;;;;1.9;1.1;;;;;;;9.37;28.10254;940.8926;;;;
2022/02/13 10:20:39;;;;;;;2.8;1.1;;;;;;;8.59;27.66504;940.897;;;;
2022/02/13 10:23:04;;;;;;;3;1.4;;;;;;;7.99;28.16016;940.9365;;;;
2022/02/13 10:25:31;;;;;;;5.8;1.6;;;;;;;7.43;29.49512;940.9358;;;;
2022/02/13 10:27:56;;;;;;;5.6;1.7;;;;;;;7.62;30.55078;940.8028;;;;
2022/02/13 10:30:31;;;;;;;2.5;1.4;;;;;;;7.45;31.86621;940.8166;;;;
2022/02/13 10:32:56;;;;;;;1.7;1.1;;;;;;;7.49;32.60547;940.7994;;;;
2022/02/13 10:35:24;;;;;;;3.4;1.1;;;;;;;8.02;30.25098;940.7448;;;;
2022/02/13 10:37:46;;;;;;;4;1.4;;;;;;;8.59;29.64258;940.6928;;;;
2022/02/13 10:40:18;;;;;;;2.4;1.2;;;;;;;8.69;27.05859;940.6295;;;;
2022/02/13 10:42:46;;;;;;;3.4;1.2;;;;;;;8.86;27.13672;940.5949;;;;
2022/02/13 10:45:13;;;;;;;4.4;1.4;;;;;;;8.38;27.91309;940.4908;;;;
2022/02/13 10:47:37;;;;;;;2.7;1.4;;;;;;;9.13;26.83496;940.443;;;;
2022/02/13 10:50:03;;;;;;;1.9;1.2;;;;;;;9.51;27.13184;940.4088;;;;
2022/02/13 10:52:28;;;;;;;2.7;1.1;;;;;;;9.36;28.27246;940.2979;;;;
2022/02/13 10:54:56;;;;;;;1.3;1.1;;;;;;;9.29;26.94727;940.1729;;;;
2022/02/13 10:57:21;;;;;;;2.1;1.2;;;;;;;9.58;26.24707;940.134;;;;
2022/02/13 10:59:48;;;;;;;2.4;1.1;;;;;;;10.29;27.4209;940.1119;;;;
2022/02/13 11:02:13;;;;;;;2.3;1.3;;;;;;;9.22;27.2959;940.0659;;;;
2022/02/13 11:04:43;;;;;;;1.5;1.2;;;;;;;9.57;28.1377;939.9559;;;;
2022/02/13 11:07:08;;;;;;;1.4;1.1;;;;;;;9.44;26.02246;939.9261;;;;
2022/02/13 11:09:37;;;;;;;2.7;1.3;;;;;;;9.34;27.06348;939.8503;;;;
2022/02/13 11:12:08;;;;;;;1.6;1;;;;;;;9.95;24.9248;939.7833;;;;
2022/02/13 11:14:36;;;;;;;1.9;1;;;;;;;10.01;25.9209;939.7248;;;;
2022/02/13 11:16:58;;;;;;;4.6;1.1;;;;;;;10.43;24.75879;939.6213;;;;
2022/02/13 11:19:25;;;;;;;1.2;1.1;;;;;;;11.28;23.01074;939.5722;;;;
2022/02/13 11:21:49;;;;;;;2.4;1;;;;;;;11.21;22.43555;939.4987;;;;
2022/02/13 11:24:18;;;;;;;1.6;0.9;;;;;;;12.12;22.32324;939.4047;;;;
2022/02/13 11:26:51;;;;;;;2.1;1.1;;;;;;;13.54;21.83203;939.3234;;;;
2022/02/13 11:29:16;;;;;;;5.5;1.1;;;;;;;13.47;20.56445;939.2147;;;;
2022/02/13 11:31:42;;;;;;;4.2;1.1;;;;;;;14.33;19.07324;939.2439;;;;
2022/02/13 11:34:09;;;;;;;2.5;0.9;;;;;;;13.46;18.83984;939.137;;;;
2022/02/13 11:36:36;;;;;;;2.5;2.3;;;;;;;14.27;18.25293;939.1439;;;;
2022/02/13 11:39:11;;;;;;;1.8;1.2;;;;;;;16.22;18.31055;938.9935;;;;
2022/02/13 11:41:37;;;;;;;1.1;0.9;;;;;;;17.51;17.1123;938.9221;;;;
2022/02/13 11:44:01;;;;;;;1.1;0.9;;;;;;;18.94;16.72559;938.8088;;;;
2022/02/13 11:46:30;;;;;;;1.6;0.7;;;;;;;19.93;15.28125;938.7684;;;;
2022/02/13 11:48:54;;;;;;;4.9;1;;;;;;;21.3;15.08301;938.6875;;;;
2022/02/13 11:51:19;;;;;;;1.5;0.7;;;;;;;21.06;13.96387;938.5864;;;;
2022/02/13 11:53:44;;;;;;;1.6;0.6;;;;;;;21.95;13.13672;938.5933;;;;
2022/02/13 11:56:14;;;;;;;0.7;0.7;;;;;;;22.07;13.82031;938.5825;;;;
2022/02/13 11:58:39;;;;;;;3.5;1;;;;;;;19.6;14.57031;938.5644;;;;
2022/02/13 12:01:04;;;;;;;2.3;1;;;;;;;23.22;12.79785;938.5347;;;;
2022/02/13 12:03:32;;;;;;;1.1;0.7;;;;;;;24.63;12.46094;938.4749;;;;
2022/02/13 12:06:03;;;;;;;0.9;0.7;;;;;;;23.97;13.4082;938.448;;;;
2022/02/13 12:08:28;;;;;;;1;0.7;;;;;;;24.57;11.74023;938.386;;;;
2022/02/13 12:10:53;;;;;;;2;1;;;;;;;24.08;11.38672;938.382;;;;
2022/02/13 12:13:22;;;;;;;1.3;0.8;;;;;;;25.99;11.31641;938.2314;;;;
2022/02/13 12:16:01;;;;;;;1;0.7;;;;;;;24.02;11.66699;938.1925;;;;
2022/02/13 12:18:27;;;;;;;0.8;0.7;;;;;;;25.25;10.81348;938.05;;;;
2022/02/13 12:20:52;;;;;;;1.4;1.1;;;;;;;24.3;10.96777;938.0185;;;;
2022/02/13 12:23:17;;;;;;;3;0.9;;;;;;;25.62;11.30762;938.0092;;;;
2022/02/13 12:25:47;;;;;;;0.8;0.7;;;;;;;26.55;11.03516;938.0172;;;;
2022/02/13 12:28:12;;;;;;;0.6;0.6;;;;;;;27.85;10.78223;937.9447;;;;
2022/02/13 12:30:37;;;;;;;2.3;0.8;;;;;;;29.31;9.839844;937.9239;;;;
2022/02/13 12:33:02;;;;;;;1.5;0.8;;;;;;;29.33;10.17383;937.8484;;;;
2022/02/13 12:35:33;;;;;;;1.5;1;;;;;;;29.41;9.99707;937.7917;;;;
2022/02/13 12:38:04;;;;;;;1.2;0.9;;;;;;;27.91;10.10645;937.7292;;;;
2022/02/13 12:40:32;;;;;;;0.9;0.6;;;;;;;28.1;9.302734;937.7289;;;;
2022/02/13 12:42:57;;;;;;;1;0.7;;;;;;;27.1;10.91797;937.7134;;;;
2022/02/13 12:45:27;;;;;;;1.4;1;;;;;;;28.2;9.34082;937.7202;;;;
2022/02/13 12:47:52;;;;;;;1.5;0.8;;;;;;;28.88;9.033203;937.6503;;;;
2022/02/13 12:50:26;;;;;;;1.5;0.9;;;;;;;26.81;10.63867;937.6291;;;;
2022/02/13 12:52:51;;;;;;;0.7;0.7;;;;;;;27.84;9.712891;937.5667;;;;
2022/02/13 12:55:16;;;;;;;1.3;0.9;;;;;;;28.01;9.680664;937.4959;;;;
2022/02/13 12:57:42;;;;;;;2;0.9;;;;;;;28.79;9.638672;937.457;;;;
2022/02/13 13:00:06;;;;;;;2.2;1;;;;;;;29.9;9.041992;937.4504;;;;
2022/02/13 13:02:33;;;;;;;1;0.7;;;;;;;30.08;9.462891;937.4347;;;;
2022/02/13 13:05:17;;;;;;;1.1;1;;;;;;;30.33;9.026367;937.4117;;;;
2022/02/13 13:07:23;;;;;;;1.2;0.7;;;;;;;31.25;8.697266;937.3585;;;;
2022/02/13 13:09:48;;;;;;;3.3;0.7;;;;;;;31.78;8.744141;937.3474;;;;
2022/02/13 13:12:14;;;;;;;1.8;1;;;;;;;31.86;8.505859;937.2833;;;;
2022/02/13 13:14:39;;;;;;;0.9;0.9;;;;;;;32.09;8.557617;937.2307;;;;
2022/02/13 13:17:19;;;;;;;1.3;0.6;;;;;;;32.58;7.907227;937.1594;;;;
2022/02/13 13:19:47;;;;;;;1.6;0.8;;;;;;;31.42;8.234375;937.1414;;;;
2022/02/13 13:22:13;;;;;;;1.1;0.7;;;;;;;30.89;8.619141;937.1108;;;;
2022/02/13 13:24:38;;;;;;;0.8;0.8;;;;;;;30.71;8.62793;937.0726;;;;
2022/02/13 13:27:05;;;;;;;1;0.6;;;;;;;31.51;8.332031;936.998;;;;
2022/02/13 13:29:29;;;;;;;2.8;0.8;;;;;;;31.6;8.464844;936.9247;;;;
2022/02/13 13:31:54;;;;;;;1.8;0.6;;;;;;;31.26;8.817383;936.8597;;;;
2022/02/13 13:34:26;;;;;;;1;0.9;;;;;;;31.6;8.992188;936.7975;;;;
2022/02/13 13:36:51;;;;;;;2.1;1;;;;;;;31.45;9.060547;936.7816;;;;
2022/02/13 13:39:16;;;;;;;1.2;0.8;;;;;;;30.83;8.271484;936.7877;;;;
2022/02/13 13:41:44;;;;;;;0.8;0.8;;;;;;;30.88;8.523438;936.7846;;;;
2022/02/13 13:44:09;;;;;;;3.6;1.1;;;;;;;29.71;8.740234;936.7167;;;;
2022/02/13 13:47:06;;;;;;;0.9;0.8;;;;;;;29.6;9.572266;936.6261;;;;
2022/02/13 14:00:16;;;;;;;1.1;0.8;;;;;;;29.95;9.615234;936.4655;;;;
2022/02/13 14:02:35;;;;;;;0.8;0.6;;;;;;;31.21;9.618164;936.433;;;;
2022/02/13 14:05:00;;;;;;;0.7;0.7;;;;;;;31.49;8.917969;936.4387;;;;
2022/02/13 14:07:26;;;;;;;1;0.6;;;;;;;31.33;8.962891;936.4127;;;;
2022/02/13 14:09:51;;;;;;;1.5;0.8;;;;;;;31.46;8.905273;936.3943;;;;
2022/02/13 14:12:19;;;;;;;1.6;0.8;;;;;;;31.69;8.717773;936.3269;;;;
2022/02/13 14:14:48;;;;;;;2.2;1;;;;;;;31.55;8.978516;936.3364;;;;
2022/02/13 14:17:24;;;;;;;0.9;0.9;;;;;;;31.31;9.249023;936.2414;;;;
2022/02/13 14:19:55;;;;;;;1.2;1.1;;;;;;;31.34;9.202148;936.2046;;;;
2022/02/13 14:22:20;;;;;;;2.2;0.7;;;;;;;30.45;9.601563;936.2031;;;;
2022/02/13 14:24:50;;;;;;;1.8;0.8;;;;;;;30;9.62793;936.1903;;;;
2022/02/13 14:27:17;;;;;;;0.9;0.6;;;;;;;30.6;9.617188;936.1392;;;;
2022/02/13 14:29:48;;;;;;;1.1;0.9;;;;;;;30.29;9.360352;936.139;;;;
2022/02/13 14:32:13;;;;;;;2.3;1.2;;;;;;;30.15;9.5;936.0627;;;;
2022/02/13 14:34:42;;;;;;;1.1;1;;;;;;;28.98;10.64258;936.0581;;;;
2022/02/13 14:37:09;;;;;;;0.8;0.8;;;;;;;29.36;10.41309;936.0954;;;;
2022/02/13 14:39:32;;;;;;;1.7;0.8;;;;;;;28.62;11.22852;936.0833;;;;
2022/02/13 14:41:59;;;;;;;1.3;1;;;;;;;27.87;11.34082;936.0556;;;;
2022/02/13 14:44:24;;;;;;;0.9;0.9;;;;;;;27.64;11.75;936.0123;;;;
2022/02/13 14:46:53;;;;;;;0.9;0.6;;;;;;;27.17;12.33105;936.0226;;;;
2022/02/13 14:49:18;;;;;;;2.3;0.7;;;;;;;26.92;11.87305;935.9897;;;;
2022/02/13 14:51:46;;;;;;;0.7;0.7;;;;;;;26.15;12.01855;935.993;;;;
2022/02/13 14:54:11;;;;;;;2;0.8;;;;;;;24.45;12.88086;935.9297;;;;
2022/02/13 14:56:39;;;;;;;0.7;0.7;;;;;;;23.41;14.01465;935.9157;;;;
2022/02/13 14:59:04;;;;;;;3.4;1.1;;;;;;;23.38;14.58984;935.9073;;;;
2022/02/13 15:01:33;;;;;;;4.2;1.2;;;;;;;21.94;16.03125;935.8247;;;;
2022/02/13 15:03:58;;;;;;;3.3;1.2;;;;;;;21.6;16.5918;935.8606;;;;
2022/02/13 15:06:26;;;;;;;3.6;2.5;;;;;;;21.13;16.46973;935.8416;;;;
2022/02/13 15:08:52;;;;;;;4;1.9;;;;;;;20.41;17.30664;935.8259;;;;
2022/02/13 15:11:22;;;;;;;4;1.4;;;;;;;19.79;17.86523;935.8303;;;;
2022/02/13 15:13:46;;;;;;;1.7;1.3;;;;;;;19.22;18.9375;935.8109;;;;